Upper Mahanoy, Pennsylvania
Current Conditions -  °F | °C
As of 4:53 AM on Friday 24 Oct 2014 (Local Time) from KSEG Reporting Station
Overcast Overcast  
Wind Chill: 56°   Ceiling: 3400
Heat Index: 56°   Visibility: 10mi
Dew Point: 43°   Wind: 5mph
Humidity: 62%   Direction: 340°NNW
Pressure: 29.93"   Gusts: NA
Location:  40.7104°N, 76.6275°W
Report Text: KSEG 240853Z AUTO 34004KT 10SM OVC034 13/06 A2993 RMK AO2 SLP136 T01330061 51011
Loading
Personal Weather Stations






























Interactive Weather Map
Tropical Storm Tracking
New forecast layout! Learn more

10-Day Weather Forecast

Advertisements
Track Severe Weather on mobile